This is the latest recevied weather packets stored in our database for station/object KB9YVI-11. If no packets are shown the sender has not sent any weather packets the latest 10 day(s).
| Time | Temp. | Humidity | Pressure | Rain* | Wind** | Luminosity | Snow |
|---|---|---|---|---|---|---|---|
| 1777974930 | 13.33° C | 100% | 0 hPa | 1.52 mm | - | - | - |
| 1777974630 | 13.33° C | 100% | 0 hPa | 1.78 mm | - | - | - |
| 1777973427 | 13.33° C | 100% | 0 hPa | 2.29 mm | - | - | - |
| 1777973130 | 13.33° C | 100% | 0 hPa | 2.79 mm | - | - | - |
| 1777972530 | 13.33° C | 100% | 0 hPa | 3.3 mm | - | - | - |
| 1777971930 | 13.89° C | 100% | 0 hPa | 3.81 mm | - | - | - |
| 1777971330 | 13.89° C | 100% | 0 hPa | 4.57 mm | - | - | - |
| 1777970730 | 13.89° C | 100% | 0 hPa | 5.59 mm | - | - | - |
| 1777970130 | 13.89° C | 100% | 0 hPa | 5.08 mm | - | - | - |
| 1777969827 | 13.89° C | 100% | 0 hPa | 5.08 mm | - | - | - |
| 1777968930 | 13.89° C | 100% | 0 hPa | 5.59 mm | - | - | - |
| 1777967130 | 14.44° C | 100% | 0 hPa | 2.79 mm | - | - | - |
| 1777966228 | 15.56° C | 100% | 0 hPa | 1.78 mm | - | - | - |
| 1777965030 | 18.33° C | 95% | 0 hPa | 0 mm | - | - | - |
| 1777963529 | 20.56° C | 78% | 0 hPa | 0 mm | - | - | - |
| 1777963229 | 20.56° C | 77% | 0 hPa | 0 mm | - | - | - |
| 1777962929 | 20.56° C | 77% | 0 hPa | 0 mm | - | - | - |
| 1777962628 | 20.56° C | 77% | 0 hPa | 0 mm | - | - | - |
| 1777962329 | 20.56° C | 77% | 0 hPa | 0 mm | - | - | - |
| 1777962029 | 20.56° C | 76% | 0 hPa | 0 mm | - | - | - |
| 1777961729 | 20.56° C | 76% | 0 hPa | 0 mm | - | - | - |
| 1777961429 | 20.56° C | 76% | 0 hPa | 0 mm | - | - | - |
| 1777961129 | 20.56° C | 76% | 0 hPa | 0 mm | - | - | - |
| 1777960229 | 21.11° C | 75% | 0 hPa | 0 mm | - | - | - |
| 1777959630 | 21.11° C | 74% | 0 hPa | 0 mm | - | - | - |
* Rain latest hour (hover to see other rain measurements)
** Current wind speed in m/s (hover to see current wind gust speed)